createdAt,value
2023-05-14T00:00:51.399Z,24.5
2023-05-14T00:05:51.500Z,15.7
2023-05-14T00:10:51.662Z,15.7
2023-05-14T00:15:51.850Z,23.2
2023-05-14T00:20:52.092Z,19.4
2023-05-14T00:25:52.094Z,16.3
2023-05-14T00:30:52.233Z,25.8
2023-05-14T00:35:52.411Z,18.8
2023-05-14T00:40:52.539Z,22.8
2023-05-14T00:45:52.669Z,22.8
2023-05-14T00:50:52.769Z,24.2
2023-05-14T00:55:52.819Z,24.2
2023-05-14T01:00:53.005Z,25.1
2023-05-14T01:05:53.124Z,22.9
2023-05-14T01:10:53.254Z,22.8
2023-05-14T01:15:53.416Z,21.4
2023-05-14T01:20:54.725Z,21.4
2023-05-14T01:25:54.895Z,27.6
2023-05-14T01:30:53.776Z,27.6
2023-05-14T01:35:53.917Z,26.7
2023-05-14T01:40:54.044Z,23.6
2023-05-14T01:45:54.171Z,33.7
2023-05-14T01:50:56.750Z,24.3
2023-05-14T01:55:54.377Z,23.5
2023-05-14T02:00:54.513Z,22.0
2023-05-14T02:05:54.670Z,27.1
2023-05-14T02:10:54.743Z,27.1
2023-05-14T02:15:56.928Z,25.7
2023-05-14T02:20:55.023Z,28.5
2023-05-14T02:25:55.166Z,30.2
2023-05-14T02:30:57.323Z,29.4
2023-05-14T02:35:55.471Z,30.2
2023-05-14T02:45:55.714Z,27.0
2023-05-14T02:50:55.858Z,24.9
2023-05-14T02:55:55.984Z,26.5
2023-05-14T03:00:56.159Z,28.7
2023-05-14T03:05:56.283Z,27.1
2023-05-14T03:10:56.418Z,24.9
2023-05-14T03:15:56.531Z,24.9
2023-05-14T03:20:56.747Z,24.4
2023-05-14T03:25:56.827Z,28.7
2023-05-14T03:30:57.022Z,27.7
2023-05-14T03:35:57.144Z,24.6
2023-05-14T03:40:57.318Z,22.6
2023-05-14T03:45:57.508Z,22.6
2023-05-14T03:50:57.696Z,32.1
2023-05-14T03:55:57.820Z,29.9
2023-05-14T04:00:57.983Z,29.9
2023-05-14T04:05:58.088Z,24.1
2023-05-14T04:10:58.283Z,26.2
2023-05-14T04:20:58.538Z,30.6
2023-05-14T04:25:58.802Z,27.6
2023-05-14T04:30:58.851Z,36.0
2023-05-14T04:35:58.961Z,29.6
2023-05-14T04:40:59.104Z,29.5
2023-05-14T04:46:01.251Z,29.0
2023-05-14T04:50:59.379Z,31.5
2023-05-14T04:55:59.502Z,27.7
2023-05-14T05:00:59.719Z,27.7
2023-05-14T05:05:59.830Z,27.6
2023-05-14T05:10:59.964Z,32.6
2023-05-14T05:16:00.199Z,31.1
2023-05-14T05:21:00.251Z,35.3
2023-05-14T05:26:00.442Z,35.3
2023-05-14T05:31:00.526Z,31.2
2023-05-14T05:36:00.651Z,30.6
2023-05-14T05:41:00.885Z,25.8
2023-05-14T05:46:00.997Z,31.9
2023-05-14T05:51:01.116Z,33.0
2023-05-14T05:56:01.230Z,27.8
2023-05-14T06:01:01.395Z,32.9
2023-05-14T06:06:01.531Z,32.9
2023-05-14T06:11:01.678Z,29.1
2023-05-14T06:21:01.962Z,28.0
2023-05-14T06:26:02.259Z,22.3
2023-05-14T06:31:02.278Z,27.3
2023-05-14T06:36:02.544Z,23.2
2023-05-14T06:41:02.645Z,26.3
2023-05-14T06:46:02.761Z,26.3
2023-05-14T06:51:06.888Z,26.0
2023-05-14T06:56:03.014Z,24.7
2023-05-14T07:01:03.262Z,30.0
2023-05-14T07:06:03.625Z,27.0
2023-05-14T07:11:03.584Z,29.2
2023-05-14T07:16:03.678Z,23.5
2023-05-14T07:21:03.840Z,27.5
2023-05-14T07:26:04.092Z,28.7
2023-05-14T07:31:04.650Z,26.4
2023-05-14T07:36:04.433Z,29.6
2023-05-14T07:41:04.764Z,23.3
2023-05-14T07:51:04.982Z,18.7
2023-05-14T07:56:05.246Z,22.0
2023-05-14T08:01:05.396Z,22.1
2023-05-14T08:06:05.619Z,25.5
2023-05-14T08:11:05.958Z,25.5
2023-05-14T08:16:06.043Z,21.7
2023-05-14T08:21:06.268Z,23.6
2023-05-14T08:31:06.845Z,20.8
2023-05-14T08:36:07.080Z,21.4
2023-05-14T08:41:07.344Z,20.4
2023-05-14T08:46:07.614Z,21.9
2023-05-14T08:51:07.932Z,20.3
2023-05-14T08:56:08.130Z,16.8
2023-05-14T09:01:08.641Z,19.3
2023-05-14T09:06:08.838Z,18.1
2023-05-14T09:11:09.198Z,22.9
2023-05-14T09:16:09.415Z,19.4
2023-05-14T09:21:10.325Z,19.2
2023-05-14T09:26:10.093Z,19.2
2023-05-14T09:31:10.594Z,18.7
2023-05-14T09:36:10.773Z,18.1
2023-05-14T09:41:11.282Z,18.1
2023-05-14T09:51:14.656Z,14.7
2023-05-14T09:56:12.368Z,16.3
2023-05-14T10:01:12.945Z,17.9
2023-05-14T10:06:13.200Z,16.3
2023-05-14T10:11:13.777Z,14.6
2023-05-14T10:16:14.126Z,13.2
2023-05-14T10:21:14.699Z,10.5
2023-05-14T10:26:15.302Z,10.9
2023-05-14T10:31:15.816Z,11.9
2023-05-14T10:36:16.711Z,13.4
2023-05-14T10:41:16.590Z,11.3
2023-05-14T10:51:17.665Z,11.9
2023-05-14T10:56:18.007Z,9.1
2023-05-14T11:01:18.604Z,9.4
2023-05-14T11:06:19.071Z,9.3
2023-05-14T11:11:19.540Z,12.2
2023-05-14T11:16:23.375Z,6.7
2023-05-14T11:21:20.504Z,6.9
2023-05-14T11:26:21.721Z,6.8
2023-05-14T11:31:21.490Z,6.2
2023-05-14T11:36:21.824Z,7.5
2023-05-14T11:41:22.395Z,5.9
2023-05-14T11:46:22.816Z,7.7
2023-05-14T11:51:25.891Z,8.5
2023-05-14T11:56:23.773Z,8.5
2023-05-14T12:01:26.403Z,8.0
2023-05-14T12:06:24.957Z,7.4
2023-05-14T12:11:25.490Z,7.4
2023-05-14T12:16:26.183Z,8.6
2023-05-14T12:21:26.598Z,8.6
2023-05-14T12:26:27.225Z,8.5
2023-05-14T12:31:29.997Z,10.2
2023-05-14T12:36:28.429Z,10.8
2023-05-14T12:41:29.022Z,10.8
2023-05-14T12:46:29.652Z,10.6
2023-05-14T12:51:30.215Z,11.4
2023-05-14T12:56:30.946Z,9.2
2023-05-14T13:01:31.422Z,8.3
2023-05-14T13:06:32.044Z,10.9
2023-05-14T13:11:32.627Z,8.5
2023-05-14T13:16:33.304Z,9.1
2023-05-14T13:21:33.950Z,10.9
2023-05-14T13:26:34.492Z,11.8
2023-05-14T13:31:39.207Z,10.8
2023-05-14T13:36:35.718Z,10.6
2023-05-14T13:41:36.465Z,14.7
2023-05-14T13:56:38.106Z,12.1
2023-05-14T14:01:38.604Z,15.2
2023-05-14T14:06:39.183Z,15.2
2023-05-14T14:11:39.753Z,14.6
2023-05-14T14:16:40.342Z,14.2
2023-05-14T14:21:40.879Z,12.1
2023-05-14T14:26:41.494Z,15.1
2023-05-14T14:31:42.208Z,15.6
2023-05-14T14:36:42.616Z,15.6
2023-05-14T14:41:43.194Z,13.8
2023-05-14T14:46:43.767Z,12.4
2023-05-14T14:51:44.367Z,10.8
2023-05-14T14:56:44.914Z,9.1
2023-05-14T15:01:45.523Z,8.4
2023-05-14T15:06:46.055Z,8.4
2023-05-14T15:11:46.609Z,5.6
2023-05-14T15:16:50.832Z,8.5
2023-05-14T15:21:51.753Z,5.7
2023-05-14T15:26:48.314Z,6.8
2023-05-14T15:31:49.023Z,5.0
2023-05-14T15:36:49.499Z,4.9
2023-05-14T15:41:50.118Z,7.2
2023-05-14T15:46:50.925Z,6.3
2023-05-14T15:51:51.330Z,6.3
2023-05-14T16:01:52.579Z,4.8
2023-05-14T16:06:53.113Z,4.8
2023-05-14T16:21:54.954Z,9.4
2023-05-14T16:26:56.052Z,8.2
2023-05-14T16:31:56.850Z,5.6
2023-05-14T16:36:56.909Z,2.9
2023-05-14T16:41:57.650Z,3.7
2023-05-14T16:46:58.352Z,2.6
2023-05-14T16:51:59.029Z,3.6
2023-05-14T16:56:59.636Z,2.8
2023-05-14T17:02:00.463Z,2.4
2023-05-14T17:07:00.804Z,3.1
2023-05-14T17:12:01.394Z,3.3
2023-05-14T17:17:01.884Z,3.8
2023-05-14T17:22:02.398Z,3.8
2023-05-14T17:27:02.914Z,12.1
2023-05-14T17:32:03.500Z,12.1
2023-05-14T17:37:03.908Z,14.9
2023-05-14T17:42:04.327Z,16.5
2023-05-14T17:47:04.899Z,13.7
2023-05-14T17:52:05.193Z,12.3
2023-05-14T17:57:05.638Z,14.2
2023-05-14T18:02:06.021Z,12.7
2023-05-14T18:07:06.494Z,14.2
2023-05-14T18:12:06.924Z,13.5
2023-05-14T18:17:07.210Z,14.9
2023-05-14T18:22:07.602Z,15.6
2023-05-14T18:27:07.956Z,17.5
2023-05-14T18:32:08.348Z,17.5
2023-05-14T18:37:09.983Z,18.4
2023-05-14T18:42:09.085Z,16.8
2023-05-14T18:47:09.609Z,14.7
2023-05-14T18:52:09.826Z,16.7
2023-05-14T19:02:10.677Z,17.8
2023-05-14T19:07:10.977Z,15.8
2023-05-14T19:12:13.466Z,11.9
2023-05-14T19:17:11.711Z,3.5
2023-05-14T19:22:14.085Z,4.4
2023-05-14T19:32:12.828Z,3.7
2023-05-14T19:37:13.210Z,5.7
2023-05-14T19:42:13.555Z,6.2
2023-05-14T19:48:50.360Z,6.9
2023-05-14T19:52:14.157Z,4.6
2023-05-14T19:57:14.462Z,3.4
2023-05-14T20:02:14.794Z,3.4
2023-05-14T20:07:17.107Z,4.1
2023-05-14T20:12:15.457Z,2.8
2023-05-14T20:17:15.797Z,3.3
2023-05-14T20:22:16.091Z,3.6
2023-05-14T20:27:16.309Z,2.9
2023-05-14T20:32:16.588Z,3.1
2023-05-14T20:37:16.879Z,5.0
2023-05-14T20:42:19.213Z,3.3
2023-05-14T20:52:17.783Z,6.3
2023-05-14T20:57:18.068Z,4.6
2023-05-14T21:02:18.603Z,7.8
2023-05-14T21:07:18.648Z,5.2
2023-05-14T21:12:18.937Z,5.9
2023-05-14T21:17:19.314Z,5.5
2023-05-14T21:22:19.456Z,5.0
2023-05-14T21:27:19.677Z,3.5
2023-05-14T21:32:19.957Z,3.4
2023-05-14T21:37:20.186Z,2.6
2023-05-14T21:42:20.419Z,3.3
2023-05-14T21:47:23.195Z,3.5
2023-05-14T21:52:20.908Z,2.2
2023-05-14T21:57:21.174Z,4.4
2023-05-14T22:02:21.495Z,4.4
2023-05-14T22:07:21.648Z,2.4
2023-05-14T22:12:21.941Z,4.9
2023-05-14T22:17:22.227Z,4.6
2023-05-14T22:22:22.465Z,4.6
2023-05-14T22:27:24.639Z,4.1
2023-05-14T22:32:22.992Z,5.0
2023-05-14T22:37:23.106Z,6.6
2023-05-14T22:42:23.318Z,6.6
2023-05-14T22:47:23.558Z,3.6
2023-05-14T22:52:23.720Z,2.9
2023-05-14T23:02:24.261Z,2.8
2023-05-14T23:07:24.396Z,4.7
2023-05-14T23:12:24.652Z,3.6
2023-05-14T23:17:24.768Z,4.8
2023-05-14T23:22:24.903Z,6.2
2023-05-14T23:27:27.616Z,3.1
2023-05-14T23:32:25.315Z,3.1
2023-05-14T23:37:25.465Z,4.7
2023-05-14T23:42:25.756Z,4.7
2023-05-14T23:52:26.039Z,3.2
2023-05-14T23:57:26.244Z,6.7
